Mojave, CA

10:16 AM PST on December 06, 2019 (GMT -0800)
Mojave

Weather History for KMHV - October, 2019

Change the Weather History Date:

Wednesday, October 9, 2019

  Actual Average Record
Temperature  
Mean Temperature 71 °F -  
Max Temperature 78 °F 80 °F 95 °F (1980)
Min Temperature 64 °F 51 °F 41 °F (1975)
Cooling Degree Days 6    
Growing Degree Days 21 (Base 50)    
Moisture  
Dew Point 31 °F    
Average Humidity 23    
Maximum Humidity 34    
Minimum Humidity 16    
Precipitation  
Precipitation 0.00 in - - ()
Sea Level Pressure  
Sea Level Pressure 29.83 in    
Wind  
Wind Speed 20 mph (West)    
Max Wind Speed 38 mph    
Max Gust Speed 53 mph    
Visibility 10 miles    
Events      
Averages and records for this station are not official NWS values.
T = Trace of Precipitation, MM = Missing Value Source: NWS Daily Summary

Daily Weather History Graph

Daily Weather History Graph

Search for Another Location

Airport or City:

Astronomy

Oct. 09, 2019 Rise Set
Actual Time 6:53 AM PDT 6:25 PM PDT
Civil Twilight 6:28 AM PDT 6:50 PM PDT
Nautical Twilight 5:58 AM PDT 7:20 PM PDT
Astronomical Twilight 5:29 AM PDT 7:49 PM PDT
Moon 4:48 PM PDT (10/9) 2:57 AM PDT (10/9)
Length of Visible Light 12h 22m
Length of Day
11h 32m
Waxing Gibbous, 85% of the Moon is Illuminated
Oct 9
Waxing Gibbous
Oct 13
Full
Oct 21
Last Quarter
Oct 27
New
Nov 4
First Quarter

Hourly Weather History & Observations

Time (PDT) Temp. Dew Point Humidity Pressure Visibility Wind Dir Wind Speed Gust Speed Precip Events Conditions
12:00 AM 71.6 °F 23.0 °F 16% 29.85 in 10.0 mi West 18.4 mph 27.6 mph N/A   Clear
12:20 AM 71.6 °F 24.8 °F 17% 29.84 in 10.0 mi West 20.7 mph - N/A   Clear
12:40 AM 71.6 °F 24.8 °F 17% 29.84 in 10.0 mi West 21.9 mph - N/A   Clear
1:00 AM 71.6 °F 24.8 °F 17% 29.84 in 10.0 mi WNW 18.4 mph 24.2 mph N/A   Partly Cloudy
1:20 AM 71.6 °F 24.8 °F 17% 29.85 in 10.0 mi WSW 13.8 mph 23.0 mph N/A   Clear
1:40 AM 69.8 °F 24.8 °F 18% 29.85 in 10.0 mi WSW 11.5 mph 19.6 mph N/A   Clear
2:00 AM 69.8 °F 24.8 °F 18% 29.86 in 10.0 mi SW 10.4 mph 23.0 mph N/A   Clear
2:20 AM 71.6 °F 23.0 °F 16% 29.85 in 10.0 mi Variable 5.8 mph 20.7 mph N/A   Clear
2:40 AM 69.8 °F 23.0 °F 17% 29.85 in 10.0 mi SW 12.7 mph 24.2 mph N/A   Clear
3:00 AM 69.8 °F 23.0 °F 17% 29.84 in 10.0 mi SSW 15.0 mph 21.9 mph N/A   Clear
3:20 AM 69.8 °F 24.8 °F 18% 29.85 in 10.0 mi SW 10.4 mph 17.3 mph N/A   Clear
3:40 AM 69.8 °F 24.8 °F 18% 29.84 in 10.0 mi SW 12.7 mph - N/A   Partly Cloudy
4:00 AM 69.8 °F 26.6 °F 20% 29.84 in 10.0 mi SW 13.8 mph - N/A   Scattered Clouds
4:20 AM 68.0 °F 26.6 °F 21% 29.84 in 10.0 mi WSW 12.7 mph - N/A   Scattered Clouds
4:40 AM 68.0 °F 28.4 °F 23% 29.84 in 10.0 mi West 12.7 mph - N/A   Scattered Clouds
5:00 AM 68.0 °F 28.4 °F 23% 29.84 in 10.0 mi West 13.8 mph 23.0 mph N/A   Partly Cloudy
5:20 AM 68.0 °F 30.2 °F 24% 29.85 in 10.0 mi West 19.6 mph 27.6 mph N/A   Partly Cloudy
5:40 AM 66.2 °F 30.2 °F 26% 29.84 in 10.0 mi WSW 19.6 mph - N/A   Partly Cloudy
6:00 AM 66.2 °F 32.0 °F 28% 29.82 in 10.0 mi West 23.0 mph 32.2 mph N/A   Clear
6:20 AM 68.0 °F 32.0 °F 26% 29.84 in 10.0 mi West 28.8 mph - N/A   Clear
6:40 AM 68.0 °F 32.0 °F 26% 29.85 in 10.0 mi West 21.9 mph 28.8 mph N/A   Clear
7:00 AM 68.0 °F 32.0 °F 26% 29.85 in 10.0 mi West 21.9 mph - N/A   Clear
7:20 AM 68.0 °F 32.0 °F 26% 29.86 in 10.0 mi West 19.6 mph 25.3 mph N/A   Clear
8:00 AM 69.8 °F 33.8 °F 27% 29.87 in 10.0 mi West 12.7 mph 24.2 mph N/A   Clear
8:20 AM 71.6 °F 33.8 °F 25% 29.87 in 10.0 mi West 18.4 mph - N/A   Clear
8:40 AM 71.6 °F 33.8 °F 25% 29.87 in 10.0 mi West 18.4 mph 24.2 mph N/A   Clear
9:00 AM 73.4 °F 33.8 °F 23% 29.87 in 10.0 mi West 23.0 mph - N/A   Clear
9:20 AM 73.4 °F 33.8 °F 23% 29.87 in 9.0 mi West 23.0 mph 29.9 mph N/A   Clear
9:40 AM 73.4 °F 33.8 °F 23% 29.88 in 10.0 mi West 19.6 mph 26.5 mph N/A   Clear
10:00 AM 75.2 °F 33.8 °F 22% 29.88 in 10.0 mi West 23.0 mph - N/A   Clear
10:20 AM 75.2 °F 33.8 °F 22% 29.87 in 10.0 mi West 27.6 mph 34.5 mph N/A   Clear
10:40 AM 75.2 °F 33.8 °F 22% 29.86 in 10.0 mi West 27.6 mph 34.5 mph N/A   Clear
11:00 AM 77.0 °F 33.8 °F 21% 29.86 in 10.0 mi West 25.3 mph 31.1 mph N/A   Clear
11:20 AM 77.0 °F 33.8 °F 21% 29.85 in 10.0 mi West 23.0 mph - N/A   Clear
11:40 AM 78.8 °F 33.8 °F 20% 29.85 in 10.0 mi West 21.9 mph 29.9 mph N/A   Clear
12:00 PM 78.8 °F 33.8 °F 20% 29.84 in 10.0 mi West 26.5 mph 33.4 mph N/A   Clear
12:20 PM 77.0 °F 35.6 °F 22% 29.84 in 10.0 mi West 25.3 mph 32.2 mph N/A   Clear
12:40 PM 77.0 °F 33.8 °F 21% 29.83 in 10.0 mi West 23.0 mph 29.9 mph N/A   Clear
1:00 PM 78.8 °F 35.6 °F 21% 29.83 in 10.0 mi West 23.0 mph 29.9 mph N/A   Clear
1:20 PM 78.8 °F 35.6 °F 21% 29.82 in 10.0 mi West 27.6 mph - N/A   Clear
1:40 PM 78.8 °F 33.8 °F 20% 29.81 in 9.0 mi West 20.7 mph 33.4 mph N/A   Clear
2:00 PM 78.8 °F 33.8 °F 20% 29.80 in 10.0 mi West 24.2 mph - N/A   Clear
2:20 PM 78.8 °F 33.8 °F 20% 29.80 in 9.0 mi West 26.5 mph 35.7 mph N/A   Clear
2:40 PM 78.8 °F 33.8 °F 20% 29.80 in 9.0 mi West 26.5 mph - N/A   Clear
3:20 PM 77.0 °F 32.0 °F 19% 29.80 in 10.0 mi West 17.3 mph 35.7 mph N/A   Clear
3:40 PM 77.0 °F 32.0 °F 19% 29.80 in 10.0 mi WNW 27.6 mph - N/A   Clear
4:00 PM 77.0 °F 32.0 °F 19% 29.80 in 10.0 mi West 18.4 mph 29.9 mph N/A   Clear
4:20 PM 75.2 °F 30.2 °F 19% 29.80 in 10.0 mi West 18.4 mph 31.1 mph N/A   Clear
4:40 PM 75.2 °F 30.2 °F 19% 29.80 in 10.0 mi West 19.6 mph 31.1 mph N/A   Clear
5:00 PM 75.2 °F 30.2 °F 19% 29.80 in 10.0 mi WSW 24.2 mph 31.1 mph N/A   Clear
5:20 PM 73.4 °F 26.6 °F 18% 29.80 in 10.0 mi West 19.6 mph 29.9 mph N/A   Clear
5:40 PM 73.4 °F 28.4 °F 19% 29.80 in 10.0 mi West 17.3 mph 25.3 mph N/A   Clear
6:00 PM 71.6 °F 30.2 °F 22% 29.80 in 10.0 mi West 19.6 mph 31.1 mph N/A   Clear
6:20 PM 69.8 °F 30.2 °F 23% 29.80 in 10.0 mi West 23.0 mph 31.1 mph N/A   Clear
6:40 PM 68.0 °F 32.0 °F 26% 29.81 in 10.0 mi West 23.0 mph 29.9 mph N/A   Clear
7:00 PM 68.0 °F 33.8 °F 28% 29.81 in 10.0 mi West 26.5 mph 33.4 mph N/A   Clear
7:20 PM 66.2 °F 33.8 °F 30% 29.81 in 10.0 mi West 31.1 mph - N/A   Clear
7:40 PM 66.2 °F 35.6 °F 32% 29.81 in 10.0 mi West 29.9 mph 39.1 mph N/A   Clear
8:00 PM 66.2 °F 35.6 °F 32% 29.80 in 10.0 mi West 31.1 mph 40.3 mph N/A   Clear
8:20 PM 64.4 °F 35.6 °F 34% 29.79 in 9.0 mi West 35.7 mph - N/A   Partly Cloudy
8:40 PM 64.4 °F 33.8 °F 32% 29.79 in 10.0 mi West 38.0 mph 43.7 mph N/A   Partly Cloudy
9:00 PM 64.4 °F 35.6 °F 34% 29.79 in 10.0 mi North - - N/A   Clear
9:20 PM 64.4 °F 35.6 °F 34% 29.78 in 10.0 mi WNW 36.8 mph 46.0 mph N/A   Clear
9:40 PM 64.4 °F 33.8 °F 32% 29.77 in 9.0 mi WNW 38.0 mph 49.5 mph N/A   Clear
10:00 PM 64.4 °F 33.8 °F 32% 29.78 in 7.0 mi WNW 34.5 mph 52.9 mph N/A   Clear
10:20 PM 64.4 °F 32.0 °F 30% 29.79 in 10.0 mi WNW 33.4 mph 46.0 mph N/A   Clear
10:40 PM 64.4 °F 28.4 °F 26% 29.83 in 10.0 mi NNW 13.8 mph 41.4 mph N/A   Clear
11:00 PM 68.0 °F 23.0 °F 18% 29.81 in 10.0 mi WNW 31.1 mph 40.3 mph N/A   Clear
11:20 PM 66.2 °F 23.0 °F 19% 29.82 in 10.0 mi WNW 20.7 mph 31.1 mph N/A   Clear
11:40 PM 66.2 °F 21.2 °F 18% 29.83 in 10.0 mi NNW 10.4 mph - N/A   Clear